sensor_id;sensor_type;location;lat;lon;timestamp;pressure;altitude;pressure_sealevel;temperature;humidity
54554;BME280;40450;55.848;-3.572;2023-07-20T00:00:09;99439.73;;;18.95;61.29
54554;BME280;40450;55.848;-3.572;2023-07-20T00:02:38;99439.57;;;18.78;60.49
54554;BME280;40450;55.848;-3.572;2023-07-20T00:05:08;99440.92;;;18.61;60.61
54554;BME280;40450;55.848;-3.572;2023-07-20T00:07:43;99442.56;;;18.72;60.60
54554;BME280;40450;55.848;-3.572;2023-07-20T00:10:09;99442.36;;;18.74;60.65
54554;BME280;40450;55.848;-3.572;2023-07-20T00:12:39;99439.05;;;18.49;60.95
54554;BME280;40450;55.848;-3.572;2023-07-20T00:15:10;99440.31;;;18.35;61.52
54554;BME280;40450;55.848;-3.572;2023-07-20T00:17:40;99439.96;;;18.45;61.29
54554;BME280;40450;55.848;-3.572;2023-07-20T00:20:11;99442.45;;;18.50;61.27
54554;BME280;40450;55.848;-3.572;2023-07-20T00:22:41;99440.45;;;18.48;60.93
54554;BME280;40450;55.848;-3.572;2023-07-20T00:25:11;99442.90;;;18.08;62.24
54554;BME280;40450;55.848;-3.572;2023-07-20T00:27:42;99451.71;;;17.13;65.00
54554;BME280;40450;55.848;-3.572;2023-07-20T00:30:13;99448.11;;;16.79;65.38
54554;BME280;40450;55.848;-3.572;2023-07-20T00:32:43;99447.45;;;16.00;68.42
54554;BME280;40450;55.848;-3.572;2023-07-20T00:35:13;99447.10;;;15.77;68.74
54554;BME280;40450;55.848;-3.572;2023-07-20T00:37:43;99450.93;;;15.27;71.05
54554;BME280;40450;55.848;-3.572;2023-07-20T00:40:13;99452.19;;;14.75;73.34
54554;BME280;40450;55.848;-3.572;2023-07-20T00:42:44;99457.60;;;15.00;72.62
54554;BME280;40450;55.848;-3.572;2023-07-20T00:45:14;99457.01;;;14.77;73.91
54554;BME280;40450;55.848;-3.572;2023-07-20T00:47:44;99455.81;;;14.89;73.30
54554;BME280;40450;55.848;-3.572;2023-07-20T00:50:15;99451.47;;;14.80;74.74
54554;BME280;40450;55.848;-3.572;2023-07-20T00:52:45;99448.98;;;14.32;75.15
54554;BME280;40450;55.848;-3.572;2023-07-20T00:55:15;99447.34;;;14.22;75.82
54554;BME280;40450;55.848;-3.572;2023-07-20T00:57:46;99444.05;;;14.00;76.95
54554;BME280;40450;55.848;-3.572;2023-07-20T01:00:17;99443.96;;;14.28;76.25
54554;BME280;40450;55.848;-3.572;2023-07-20T01:02:46;99442.44;;;15.14;74.21
54554;BME280;40450;55.848;-3.572;2023-07-20T01:05:16;99438.67;;;15.57;72.24
54554;BME280;40450;55.848;-3.572;2023-07-20T01:07:52;99435.71;;;15.65;71.88
54554;BME280;40450;55.848;-3.572;2023-07-20T01:10:25;99434.76;;;15.66;71.92
54554;BME280;40450;55.848;-3.572;2023-07-20T01:12:51;99432.19;;;16.04;70.61
54554;BME280;40450;55.848;-3.572;2023-07-20T01:15:18;99432.39;;;16.32;70.29
54554;BME280;40450;55.848;-3.572;2023-07-20T01:17:48;99429.13;;;15.37;71.71
54554;BME280;40450;55.848;-3.572;2023-07-20T01:20:20;99432.20;;;15.60;71.01
54554;BME280;40450;55.848;-3.572;2023-07-20T01:23:03;99436.67;;;15.27;72.01
54554;BME280;40450;55.848;-3.572;2023-07-20T01:25:31;99436.36;;;15.48;71.90
54554;BME280;40450;55.848;-3.572;2023-07-20T01:30:30;99430.18;;;16.26;70.03
54554;BME280;40450;55.848;-3.572;2023-07-20T01:32:55;99429.34;;;16.44;68.69
54554;BME280;40450;55.848;-3.572;2023-07-20T01:35:21;99429.21;;;16.36;69.00
54554;BME280;40450;55.848;-3.572;2023-07-20T01:37:51;99426.52;;;16.71;68.35
54554;BME280;40450;55.848;-3.572;2023-07-20T01:40:21;99425.43;;;16.77;67.60
54554;BME280;40450;55.848;-3.572;2023-07-20T01:42:51;99424.12;;;16.66;67.32
54554;BME280;40450;55.848;-3.572;2023-07-20T01:45:20;99424.65;;;16.87;67.55
54554;BME280;40450;55.848;-3.572;2023-07-20T01:47:51;99424.31;;;16.95;65.70
54554;BME280;40450;55.848;-3.572;2023-07-20T01:50:21;99423.24;;;16.60;66.99
54554;BME280;40450;55.848;-3.572;2023-07-20T01:52:51;99423.93;;;16.79;65.75
54554;BME280;40450;55.848;-3.572;2023-07-20T01:55:21;99424.42;;;16.89;66.14
54554;BME280;40450;55.848;-3.572;2023-07-20T01:57:52;99428.98;;;17.15;65.87
54554;BME280;40450;55.848;-3.572;2023-07-20T02:00:22;99427.77;;;17.23;64.92
54554;BME280;40450;55.848;-3.572;2023-07-20T02:02:52;99425.94;;;15.80;68.56
54554;BME280;40450;55.848;-3.572;2023-07-20T02:05:22;99428.04;;;15.30;70.99
54554;BME280;40450;55.848;-3.572;2023-07-20T02:07:52;99428.69;;;14.56;73.64
54554;BME280;40450;55.848;-3.572;2023-07-20T02:10:22;99431.39;;;14.18;75.51
54554;BME280;40450;55.848;-3.572;2023-07-20T02:12:53;99423.81;;;14.83;73.84
54554;BME280;40450;55.848;-3.572;2023-07-20T02:15:23;99424.27;;;14.22;75.23
54554;BME280;40450;55.848;-3.572;2023-07-20T02:17:54;99423.90;;;14.41;75.32
54554;BME280;40450;55.848;-3.572;2023-07-20T02:20:24;99420.23;;;14.01;76.91
54554;BME280;40450;55.848;-3.572;2023-07-20T02:22:54;99418.61;;;13.91;77.10
54554;BME280;40450;55.848;-3.572;2023-07-20T02:25:24;99422.15;;;13.76;77.55
54554;BME280;40450;55.848;-3.572;2023-07-20T02:27:56;99420.22;;;13.88;77.20
54554;BME280;40450;55.848;-3.572;2023-07-20T02:30:25;99420.20;;;13.80;77.72
54554;BME280;40450;55.848;-3.572;2023-07-20T02:32:55;99416.48;;;13.78;77.99
54554;BME280;40450;55.848;-3.572;2023-07-20T02:35:25;99415.99;;;13.66;77.93
54554;BME280;40450;55.848;-3.572;2023-07-20T02:37:56;99413.61;;;14.06;76.81
54554;BME280;40450;55.848;-3.572;2023-07-20T02:40:26;99409.81;;;14.82;75.89
54554;BME280;40450;55.848;-3.572;2023-07-20T02:42:56;99413.49;;;15.27;74.76
54554;BME280;40450;55.848;-3.572;2023-07-20T02:45:27;99412.00;;;15.44;71.81
54554;BME280;40450;55.848;-3.572;2023-07-20T02:47:57;99414.68;;;14.60;73.63
54554;BME280;40450;55.848;-3.572;2023-07-20T02:50:27;99414.41;;;14.58;73.69
54554;BME280;40450;55.848;-3.572;2023-07-20T02:52:57;99410.71;;;14.34;73.88
54554;BME280;40450;55.848;-3.572;2023-07-20T02:55:28;99411.13;;;14.02;74.71
54554;BME280;40450;55.848;-3.572;2023-07-20T02:57:58;99412.30;;;13.80;75.26
54554;BME280;40450;55.848;-3.572;2023-07-20T03:00:28;99420.16;;;13.35;76.96
54554;BME280;40450;55.848;-3.572;2023-07-20T03:02:59;99420.52;;;13.23;77.50
54554;BME280;40450;55.848;-3.572;2023-07-20T03:05:29;99423.05;;;12.76;77.97
54554;BME280;40450;55.848;-3.572;2023-07-20T03:07:59;99424.80;;;12.64;79.01
54554;BME280;40450;55.848;-3.572;2023-07-20T03:10:30;99424.44;;;12.72;78.73
54554;BME280;40450;55.848;-3.572;2023-07-20T03:13:00;99420.63;;;12.18;80.61
54554;BME280;40450;55.848;-3.572;2023-07-20T03:15:30;99424.18;;;12.24;80.16
54554;BME280;40450;55.848;-3.572;2023-07-20T03:18:00;99423.07;;;11.91;81.30
54554;BME280;40450;55.848;-3.572;2023-07-20T03:20:31;99422.82;;;11.66;81.73
54554;BME280;40450;55.848;-3.572;2023-07-20T03:23:01;99421.43;;;11.89;80.98
54554;BME280;40450;55.848;-3.572;2023-07-20T03:25:31;99420.59;;;12.04;80.85
54554;BME280;40450;55.848;-3.572;2023-07-20T03:28:02;99419.80;;;11.92;80.90
54554;BME280;40450;55.848;-3.572;2023-07-20T03:30:32;99426.24;;;11.60;81.44
54554;BME280;40450;55.848;-3.572;2023-07-20T03:33:02;99416.86;;;11.76;81.38
54554;BME280;40450;55.848;-3.572;2023-07-20T03:35:33;99419.87;;;11.44;81.90
54554;BME280;40450;55.848;-3.572;2023-07-20T03:38:05;99422.66;;;11.24;82.74
54554;BME280;40450;55.848;-3.572;2023-07-20T03:40:33;99423.68;;;11.25;82.91
54554;BME280;40450;55.848;-3.572;2023-07-20T03:43:04;99423.64;;;11.51;82.45
54554;BME280;40450;55.848;-3.572;2023-07-20T03:45:34;99423.82;;;11.96;81.03
54554;BME280;40450;55.848;-3.572;2023-07-20T03:48:05;99424.18;;;12.53;78.50
54554;BME280;40450;55.848;-3.572;2023-07-20T03:50:35;99425.67;;;12.62;77.42
54554;BME280;40450;55.848;-3.572;2023-07-20T03:53:06;99423.75;;;12.39;78.69
54554;BME280;40450;55.848;-3.572;2023-07-20T03:55:36;99420.32;;;11.94;79.98
54554;BME280;40450;55.848;-3.572;2023-07-20T03:58:06;99420.30;;;12.09;79.68
54554;BME280;40450;55.848;-3.572;2023-07-20T04:00:37;99423.48;;;12.23;78.95
54554;BME280;40450;55.848;-3.572;2023-07-20T04:03:07;99419.56;;;12.16;79.83
54554;BME280;40450;55.848;-3.572;2023-07-20T04:05:37;99416.44;;;12.02;79.82
54554;BME280;40450;55.848;-3.572;2023-07-20T04:08:07;99411.39;;;12.15;79.33
54554;BME280;40450;55.848;-3.572;2023-07-20T04:10:38;99413.77;;;11.98;79.23
54554;BME280;40450;55.848;-3.572;2023-07-20T04:13:08;99414.34;;;12.05;79.14
54554;BME280;40450;55.848;-3.572;2023-07-20T04:15:38;99417.55;;;12.86;78.48
54554;BME280;40450;55.848;-3.572;2023-07-20T04:18:08;99411.34;;;12.11;78.58
54554;BME280;40450;55.848;-3.572;2023-07-20T04:20:39;99416.34;;;12.79;78.02
54554;BME280;40450;55.848;-3.572;2023-07-20T04:23:09;99412.81;;;12.25;77.80
54554;BME280;40450;55.848;-3.572;2023-07-20T04:25:40;99408.29;;;11.97;79.45
54554;BME280;40450;55.848;-3.572;2023-07-20T04:28:10;99411.22;;;11.20;81.63
54554;BME280;40450;55.848;-3.572;2023-07-20T04:30:42;99412.88;;;11.39;81.54
54554;BME280;40450;55.848;-3.572;2023-07-20T04:33:10;99411.19;;;11.71;80.89
54554;BME280;40450;55.848;-3.572;2023-07-20T04:35:47;99412.54;;;11.48;81.42
54554;BME280;40450;55.848;-3.572;2023-07-20T04:38:11;99416.20;;;11.15;82.53
54554;BME280;40450;55.848;-3.572;2023-07-20T04:40:41;99416.40;;;11.44;81.98
54554;BME280;40450;55.848;-3.572;2023-07-20T04:43:12;99413.24;;;11.60;81.44
54554;BME280;40450;55.848;-3.572;2023-07-20T04:45:43;99408.43;;;11.39;82.16
54554;BME280;40450;55.848;-3.572;2023-07-20T04:48:14;99411.93;;;10.72;84.20
54554;BME280;40450;55.848;-3.572;2023-07-20T04:50:44;99416.18;;;10.57;84.52
54554;BME280;40450;55.848;-3.572;2023-07-20T04:53:14;99416.46;;;9.91;86.62
54554;BME280;40450;55.848;-3.572;2023-07-20T04:55:48;99411.55;;;9.90;86.95
54554;BME280;40450;55.848;-3.572;2023-07-20T04:58:15;99407.61;;;10.60;85.60
54554;BME280;40450;55.848;-3.572;2023-07-20T05:00:45;99406.30;;;10.79;84.67
54554;BME280;40450;55.848;-3.572;2023-07-20T05:03:21;99406.57;;;11.44;83.11
54554;BME280;40450;55.848;-3.572;2023-07-20T05:05:47;99408.45;;;11.60;82.28
54554;BME280;40450;55.848;-3.572;2023-07-20T05:08:16;99409.41;;;12.42;80.30
54554;BME280;40450;55.848;-3.572;2023-07-20T05:10:47;99407.49;;;13.29;79.05
54554;BME280;40450;55.848;-3.572;2023-07-20T05:13:17;99403.46;;;13.92;79.52
54554;BME280;40450;55.848;-3.572;2023-07-20T05:15:50;99399.72;;;13.91;75.91
54554;BME280;40450;55.848;-3.572;2023-07-20T05:18:17;99396.36;;;13.99;75.93
54554;BME280;40450;55.848;-3.572;2023-07-20T05:20:48;99398.76;;;14.29;75.91
54554;BME280;40450;55.848;-3.572;2023-07-20T05:23:19;99395.33;;;14.81;75.66
54554;BME280;40450;55.848;-3.572;2023-07-20T05:25:54;99394.58;;;14.64;74.22
54554;BME280;40450;55.848;-3.572;2023-07-20T05:28:19;99394.88;;;15.02;71.62
54554;BME280;40450;55.848;-3.572;2023-07-20T05:30:50;99389.20;;;15.14;73.33
54554;BME280;40450;55.848;-3.572;2023-07-20T05:33:19;99394.73;;;14.58;72.31
54554;BME280;40450;55.848;-3.572;2023-07-20T05:35:55;99391.48;;;14.39;72.98
54554;BME280;40450;55.848;-3.572;2023-07-20T05:38:20;99391.10;;;13.58;75.57
54554;BME280;40450;55.848;-3.572;2023-07-20T05:40:50;99389.82;;;13.83;75.16
54554;BME280;40450;55.848;-3.572;2023-07-20T05:43:20;99385.40;;;14.61;74.63
54554;BME280;40450;55.848;-3.572;2023-07-20T05:45:51;99384.75;;;14.24;73.88
54554;BME280;40450;55.848;-3.572;2023-07-20T05:48:21;99388.78;;;13.57;75.73
54554;BME280;40450;55.848;-3.572;2023-07-20T05:50:51;99396.12;;;12.47;79.59
54554;BME280;40450;55.848;-3.572;2023-07-20T05:53:21;99397.88;;;12.64;79.30
54554;BME280;40450;55.848;-3.572;2023-07-20T05:55:52;99398.58;;;12.95;79.08
54554;BME280;40450;55.848;-3.572;2023-07-20T05:58:23;99400.56;;;12.81;79.15
54554;BME280;40450;55.848;-3.572;2023-07-20T06:00:53;99401.87;;;12.48;80.20
54554;BME280;40450;55.848;-3.572;2023-07-20T06:03:24;99400.48;;;12.74;79.04
54554;BME280;40450;55.848;-3.572;2023-07-20T06:05:59;99398.13;;;12.94;79.04
54554;BME280;40450;55.848;-3.572;2023-07-20T06:08:24;99398.86;;;12.61;80.11
54554;BME280;40450;55.848;-3.572;2023-07-20T06:10:56;99394.09;;;13.15;79.35
54554;BME280;40450;55.848;-3.572;2023-07-20T06:13:25;99393.71;;;14.05;77.80
54554;BME280;40450;55.848;-3.572;2023-07-20T06:16:00;99395.60;;;14.24;75.49
54554;BME280;40450;55.848;-3.572;2023-07-20T06:18:31;99396.47;;;14.01;76.14
54554;BME280;40450;55.848;-3.572;2023-07-20T06:20:56;99399.11;;;13.28;78.23
54554;BME280;40450;55.848;-3.572;2023-07-20T06:23:26;99399.15;;;13.45;78.40
54554;BME280;40450;55.848;-3.572;2023-07-20T06:25:57;99396.63;;;14.03;76.92
54554;BME280;40450;55.848;-3.572;2023-07-20T06:28:27;99396.37;;;14.48;76.47
54554;BME280;40450;55.848;-3.572;2023-07-20T06:31:02;99399.16;;;15.00;75.29
54554;BME280;40450;55.848;-3.572;2023-07-20T06:33:28;99394.90;;;15.57;74.29
54554;BME280;40450;55.848;-3.572;2023-07-20T06:35:58;99397.08;;;15.81;73.32
54554;BME280;40450;55.848;-3.572;2023-07-20T06:38:37;99398.28;;;15.46;72.00
54554;BME280;40450;55.848;-3.572;2023-07-20T06:41:07;99395.08;;;16.02;72.68
54554;BME280;40450;55.848;-3.572;2023-07-20T06:43:29;99393.45;;;16.04;70.72
54554;BME280;40450;55.848;-3.572;2023-07-20T06:45:59;99396.72;;;16.26;68.99
54554;BME280;40450;55.848;-3.572;2023-07-20T06:48:30;99396.78;;;15.91;69.35
54554;BME280;40450;55.848;-3.572;2023-07-20T06:51:00;99394.00;;;15.77;69.77
54554;BME280;40450;55.848;-3.572;2023-07-20T06:53:31;99399.13;;;15.63;70.70
54554;BME280;40450;55.848;-3.572;2023-07-20T06:56:00;99398.13;;;15.47;70.24
54554;BME280;40450;55.848;-3.572;2023-07-20T06:58:31;99400.77;;;15.19;72.08
54554;BME280;40450;55.848;-3.572;2023-07-20T07:01:05;99397.53;;;15.29;71.53
54554;BME280;40450;55.848;-3.572;2023-07-20T07:03:34;99399.86;;;15.86;71.53
54554;BME280;40450;55.848;-3.572;2023-07-20T07:06:02;99398.87;;;15.83;71.17
54554;BME280;40450;55.848;-3.572;2023-07-20T07:08:37;99397.49;;;15.95;69.78
54554;BME280;40450;55.848;-3.572;2023-07-20T07:11:02;99398.44;;;16.16;69.64
54554;BME280;40450;55.848;-3.572;2023-07-20T07:13:33;99398.10;;;16.40;70.09
54554;BME280;40450;55.848;-3.572;2023-07-20T07:16:04;99400.83;;;15.09;71.25
54554;BME280;40450;55.848;-3.572;2023-07-20T07:18:34;99393.04;;;15.87;68.86
54554;BME280;40450;55.848;-3.572;2023-07-20T07:21:04;99391.54;;;16.52;69.39
54554;BME280;40450;55.848;-3.572;2023-07-20T07:23:35;99389.12;;;16.05;69.08
54554;BME280;40450;55.848;-3.572;2023-07-20T07:26:05;99387.58;;;16.34;70.39
54554;BME280;40450;55.848;-3.572;2023-07-20T07:28:36;99388.79;;;16.20;69.11
54554;BME280;40450;55.848;-3.572;2023-07-20T07:31:06;99391.23;;;16.78;68.47
54554;BME280;40450;55.848;-3.572;2023-07-20T07:33:36;99390.66;;;16.42;68.84
54554;BME280;40450;55.848;-3.572;2023-07-20T07:36:07;99387.56;;;16.38;70.63
54554;BME280;40450;55.848;-3.572;2023-07-20T07:38:37;99386.19;;;15.96;69.58
54554;BME280;40450;55.848;-3.572;2023-07-20T07:41:07;99385.48;;;16.45;68.66
54554;BME280;40450;55.848;-3.572;2023-07-20T07:43:37;99384.98;;;14.71;73.40
54554;BME280;40450;55.848;-3.572;2023-07-20T07:46:08;99378.51;;;16.04;69.73
54554;BME280;40450;55.848;-3.572;2023-07-20T07:48:38;99379.39;;;15.34;73.23
54554;BME280;40450;55.848;-3.572;2023-07-20T07:51:09;99382.44;;;16.56;71.49
54554;BME280;40450;55.848;-3.572;2023-07-20T07:53:39;99385.01;;;17.14;70.14
54554;BME280;40450;55.848;-3.572;2023-07-20T07:56:10;99386.32;;;15.99;70.38
54554;BME280;40450;55.848;-3.572;2023-07-20T07:58:41;99388.11;;;16.49;69.42
54554;BME280;40450;55.848;-3.572;2023-07-20T08:01:11;99389.35;;;16.99;69.46
54554;BME280;40450;55.848;-3.572;2023-07-20T08:03:42;99385.47;;;17.13;67.38
54554;BME280;40450;55.848;-3.572;2023-07-20T08:06:13;99378.48;;;17.72;67.63
54554;BME280;40450;55.848;-3.572;2023-07-20T08:08:42;99379.94;;;17.70;66.39
54554;BME280;40450;55.848;-3.572;2023-07-20T08:11:13;99384.63;;;17.38;64.23
54554;BME280;40450;55.848;-3.572;2023-07-20T08:13:43;99386.37;;;16.21;69.50
54554;BME280;40450;55.848;-3.572;2023-07-20T08:16:14;99396.82;;;12.92;79.44
54554;BME280;40450;55.848;-3.572;2023-07-20T08:18:44;99389.06;;;13.91;77.02
54554;BME280;40450;55.848;-3.572;2023-07-20T08:21:15;99384.17;;;16.14;70.73
54554;BME280;40450;55.848;-3.572;2023-07-20T08:23:47;99388.01;;;16.46;68.90
54554;BME280;40450;55.848;-3.572;2023-07-20T08:26:17;99390.28;;;16.42;69.50
54554;BME280;40450;55.848;-3.572;2023-07-20T08:28:47;99388.81;;;16.46;66.92
54554;BME280;40450;55.848;-3.572;2023-07-20T08:31:18;99392.63;;;16.74;68.64
54554;BME280;40450;55.848;-3.572;2023-07-20T08:33:48;99394.77;;;13.40;78.09
54554;BME280;40450;55.848;-3.572;2023-07-20T08:36:19;99388.39;;;16.00;70.66
54554;BME280;40450;55.848;-3.572;2023-07-20T08:38:49;99387.08;;;15.79;70.48
54554;BME280;40450;55.848;-3.572;2023-07-20T08:41:20;99387.33;;;16.11;71.11
54554;BME280;40450;55.848;-3.572;2023-07-20T08:43:51;99390.26;;;16.70;68.30
54554;BME280;40450;55.848;-3.572;2023-07-20T08:46:21;99393.84;;;14.00;75.22
54554;BME280;40450;55.848;-3.572;2023-07-20T08:48:51;99398.96;;;12.82;80.11
54554;BME280;40450;55.848;-3.572;2023-07-20T08:51:21;99397.51;;;12.38;81.87
54554;BME280;40450;55.848;-3.572;2023-07-20T08:53:52;99393.32;;;14.35;77.47
54554;BME280;40450;55.848;-3.572;2023-07-20T08:56:24;99404.49;;;12.25;81.24
54554;BME280;40450;55.848;-3.572;2023-07-20T08:58:52;99400.60;;;11.87;82.31
54554;BME280;40450;55.848;-3.572;2023-07-20T09:01:22;99396.17;;;14.13;73.58
54554;BME280;40450;55.848;-3.572;2023-07-20T09:03:52;99395.00;;;14.20;70.93
54554;BME280;40450;55.848;-3.572;2023-07-20T09:06:23;99392.07;;;15.02;68.21
54554;BME280;40450;55.848;-3.572;2023-07-20T09:08:53;99392.27;;;14.86;69.31
54554;BME280;40450;55.848;-3.572;2023-07-20T09:11:23;99396.70;;;13.23;74.55
54554;BME280;40450;55.848;-3.572;2023-07-20T09:14:04;99393.58;;;11.62;81.42
54554;BME280;40450;55.848;-3.572;2023-07-20T09:16:24;99398.45;;;12.93;77.68
54554;BME280;40450;55.848;-3.572;2023-07-20T09:18:54;99387.08;;;13.85;71.82
54554;BME280;40450;55.848;-3.572;2023-07-20T09:21:29;99386.77;;;15.80;68.67
54554;BME280;40450;55.848;-3.572;2023-07-20T09:23:56;99388.60;;;16.73;66.74
54554;BME280;40450;55.848;-3.572;2023-07-20T09:26:25;99387.16;;;16.33;64.95
54554;BME280;40450;55.848;-3.572;2023-07-20T09:28:55;99386.37;;;16.92;63.73
54554;BME280;40450;55.848;-3.572;2023-07-20T09:31:26;99382.96;;;16.81;63.09
54554;BME280;40450;55.848;-3.572;2023-07-20T09:33:57;99384.37;;;17.02;61.57
54554;BME280;40450;55.848;-3.572;2023-07-20T09:36:28;99379.39;;;17.48;59.21
54554;BME280;40450;55.848;-3.572;2023-07-20T09:38:59;99384.51;;;14.58;68.32
54554;BME280;40450;55.848;-3.572;2023-07-20T09:41:27;99381.00;;;14.82;66.62
54554;BME280;40450;55.848;-3.572;2023-07-20T09:43:57;99381.14;;;15.77;61.82
54554;BME280;40450;55.848;-3.572;2023-07-20T09:48:58;99386.20;;;12.08;75.10
54554;BME280;40450;55.848;-3.572;2023-07-20T09:51:29;99387.39;;;12.85;73.66
54554;BME280;40450;55.848;-3.572;2023-07-20T09:53:58;99384.57;;;12.27;76.74
54554;BME280;40450;55.848;-3.572;2023-07-20T09:56:30;99370.95;;;14.73;70.38
54554;BME280;40450;55.848;-3.572;2023-07-20T09:58:59;99373.73;;;14.49;69.68
54554;BME280;40450;55.848;-3.572;2023-07-20T10:01:30;99373.41;;;14.68;70.20
54554;BME280;40450;55.848;-3.572;2023-07-20T10:04:03;99384.26;;;12.10;75.83
54554;BME280;40450;55.848;-3.572;2023-07-20T10:06:32;99384.07;;;11.55;76.70
54554;BME280;40450;55.848;-3.572;2023-07-20T10:09:02;99378.87;;;13.26;74.36
54554;BME280;40450;55.848;-3.572;2023-07-20T10:11:34;99370.62;;;13.68;73.33
54554;BME280;40450;55.848;-3.572;2023-07-20T10:14:03;99378.59;;;12.42;77.64
54554;BME280;40450;55.848;-3.572;2023-07-20T10:16:35;99375.83;;;12.88;73.78
54554;BME280;40450;55.848;-3.572;2023-07-20T10:19:05;99367.12;;;14.89;68.64
54554;BME280;40450;55.848;-3.572;2023-07-20T10:21:35;99370.76;;;15.03;69.64
54554;BME280;40450;55.848;-3.572;2023-07-20T10:24:04;99365.68;;;17.03;59.05
54554;BME280;40450;55.848;-3.572;2023-07-20T10:26:33;99360.73;;;18.09;58.77
54554;BME280;40450;55.848;-3.572;2023-07-20T10:29:04;99358.02;;;18.38;59.65
54554;BME280;40450;55.848;-3.572;2023-07-20T10:31:35;99358.59;;;17.94;57.28
54554;BME280;40450;55.848;-3.572;2023-07-20T10:34:04;99365.90;;;16.59;60.54
54554;BME280;40450;55.848;-3.572;2023-07-20T10:36:43;99356.67;;;17.78;57.02
54554;BME280;40450;55.848;-3.572;2023-07-20T10:39:13;99360.44;;;17.06;60.67
54554;BME280;40450;55.848;-3.572;2023-07-20T10:41:39;99361.31;;;17.22;57.22
54554;BME280;40450;55.848;-3.572;2023-07-20T10:44:08;99365.63;;;14.42;65.41
54554;BME280;40450;55.848;-3.572;2023-07-20T10:46:44;99363.19;;;14.55;66.68
54554;BME280;40450;55.848;-3.572;2023-07-20T10:49:09;99368.06;;;12.81;70.34
54554;BME280;40450;55.848;-3.572;2023-07-20T10:51:40;99355.09;;;16.34;62.89
54554;BME280;40450;55.848;-3.572;2023-07-20T10:54:10;99349.50;;;18.00;57.96
54554;BME280;40450;55.848;-3.572;2023-07-20T10:56:39;99352.46;;;16.58;60.44
54554;BME280;40450;55.848;-3.572;2023-07-20T10:59:17;99351.50;;;16.16;63.27
54554;BME280;40450;55.848;-3.572;2023-07-20T11:01:42;99354.37;;;16.23;62.89
54554;BME280;40450;55.848;-3.572;2023-07-20T11:04:10;99351.95;;;16.73;60.11
54554;BME280;40450;55.848;-3.572;2023-07-20T11:06:43;99340.10;;;17.51;57.87
54554;BME280;40450;55.848;-3.572;2023-07-20T11:09:12;99351.24;;;16.36;63.17
54554;BME280;40450;55.848;-3.572;2023-07-20T11:11:43;99351.24;;;14.14;70.34
54554;BME280;40450;55.848;-3.572;2023-07-20T11:14:21;99349.65;;;14.37;69.55
54554;BME280;40450;55.848;-3.572;2023-07-20T11:16:45;99346.05;;;15.61;64.77
54554;BME280;40450;55.848;-3.572;2023-07-20T11:19:15;99344.21;;;17.22;61.42
54554;BME280;40450;55.848;-3.572;2023-07-20T11:21:46;99343.33;;;15.35;66.63
54554;BME280;40450;55.848;-3.572;2023-07-20T11:24:15;99342.42;;;13.64;71.00
54554;BME280;40450;55.848;-3.572;2023-07-20T11:26:47;99343.15;;;13.35;69.97
54554;BME280;40450;55.848;-3.572;2023-07-20T11:29:17;99335.69;;;14.51;66.09
54554;BME280;40450;55.848;-3.572;2023-07-20T11:31:47;99331.73;;;15.33;65.63
54554;BME280;40450;55.848;-3.572;2023-07-20T11:34:18;99333.31;;;15.23;66.81
54554;BME280;40450;55.848;-3.572;2023-07-20T11:36:48;99334.09;;;15.91;61.88
54554;BME280;40450;55.848;-3.572;2023-07-20T11:39:18;99333.47;;;16.31;61.51
54554;BME280;40450;55.848;-3.572;2023-07-20T11:41:49;99332.18;;;16.86;58.83
54554;BME280;40450;55.848;-3.572;2023-07-20T11:44:19;99322.32;;;17.49;58.44
54554;BME280;40450;55.848;-3.572;2023-07-20T11:46:48;99325.37;;;17.99;56.96
54554;BME280;40450;55.848;-3.572;2023-07-20T11:49:19;99323.75;;;17.54;57.93
54554;BME280;40450;55.848;-3.572;2023-07-20T11:51:50;99330.66;;;15.64;62.95
54554;BME280;40450;55.848;-3.572;2023-07-20T11:54:20;99318.35;;;17.78;56.67
54554;BME280;40450;55.848;-3.572;2023-07-20T11:56:53;99318.16;;;18.25;56.89
54554;BME280;40450;55.848;-3.572;2023-07-20T11:59:20;99318.00;;;18.23;56.40
54554;BME280;40450;55.848;-3.572;2023-07-20T12:01:51;99317.31;;;17.84;56.82
54554;BME280;40450;55.848;-3.572;2023-07-20T12:04:23;99313.41;;;17.75;57.60
54554;BME280;40450;55.848;-3.572;2023-07-20T12:06:53;99315.76;;;15.39;61.96
54554;BME280;40450;55.848;-3.572;2023-07-20T12:09:22;99315.66;;;14.78;65.03
54554;BME280;40450;55.848;-3.572;2023-07-20T12:11:52;99310.85;;;16.96;59.09
54554;BME280;40450;55.848;-3.572;2023-07-20T12:14:25;99312.82;;;14.86;63.25
54554;BME280;40450;55.848;-3.572;2023-07-20T12:16:54;99304.42;;;17.23;57.89
54554;BME280;40450;55.848;-3.572;2023-07-20T12:19:25;99312.68;;;15.99;63.74
54554;BME280;40450;55.848;-3.572;2023-07-20T12:21:58;99320.52;;;12.87;71.39
54554;BME280;40450;55.848;-3.572;2023-07-20T12:24:26;99317.17;;;12.56;71.73
54554;BME280;40450;55.848;-3.572;2023-07-20T12:26:57;99308.54;;;13.64;69.47
54554;BME280;40450;55.848;-3.572;2023-07-20T12:29:27;99307.12;;;16.44;64.49
54554;BME280;40450;55.848;-3.572;2023-07-20T12:31:57;99299.33;;;17.00;58.07
54554;BME280;40450;55.848;-3.572;2023-07-20T12:34:27;99300.16;;;16.40;61.21
54554;BME280;40450;55.848;-3.572;2023-07-20T12:36:58;99302.73;;;16.12;61.35
54554;BME280;40450;55.848;-3.572;2023-07-20T12:39:28;99301.66;;;14.93;65.33
54554;BME280;40450;55.848;-3.572;2023-07-20T12:41:58;99299.35;;;15.32;63.26
54554;BME280;40450;55.848;-3.572;2023-07-20T12:44:28;99293.32;;;15.54;61.20
54554;BME280;40450;55.848;-3.572;2023-07-20T12:46:59;99292.40;;;15.89;60.30
54554;BME280;40450;55.848;-3.572;2023-07-20T12:49:29;99291.64;;;16.28;58.73
54554;BME280;40450;55.848;-3.572;2023-07-20T12:51:59;99284.65;;;17.70;56.51
54554;BME280;40450;55.848;-3.572;2023-07-20T12:54:30;99286.94;;;15.57;60.08
54554;BME280;40450;55.848;-3.572;2023-07-20T12:57:00;99286.76;;;14.10;66.34
54554;BME280;40450;55.848;-3.572;2023-07-20T12:59:31;99279.63;;;14.82;64.75
54554;BME280;40450;55.848;-3.572;2023-07-20T13:02:01;99273.97;;;14.91;64.76
54554;BME280;40450;55.848;-3.572;2023-07-20T13:04:31;99278.49;;;15.00;64.87
54554;BME280;40450;55.848;-3.572;2023-07-20T13:07:02;99273.70;;;15.47;61.42
54554;BME280;40450;55.848;-3.572;2023-07-20T13:09:32;99273.13;;;15.64;61.30